sensor_id;sensor_type;location;lat;lon;timestamp;P1;durP1;ratioP1;P2;durP2;ratioP2
20144;SDS011;10233;50.814;6.590;2022-12-18T00:01:00;19.23;;;8.37;;
20144;SDS011;10233;50.814;6.590;2022-12-18T00:02:05;22.02;;;9.10;;
20144;SDS011;10233;50.814;6.590;2022-12-18T00:03:06;22.90;;;9.00;;
20144;SDS011;10233;50.814;6.590;2022-12-18T00:04:07;23.67;;;9.33;;
20144;SDS011;10233;50.814;6.590;2022-12-18T00:05:15;24.70;;;8.98;;
20144;SDS011;10233;50.814;6.590;2022-12-18T00:06:15;20.85;;;7.95;;
20144;SDS011;10233;50.814;6.590;2022-12-18T00:07:16;19.52;;;8.30;;
20144;SDS011;10233;50.814;6.590;2022-12-18T00:08:17;19.17;;;8.00;;
20144;SDS011;10233;50.814;6.590;2022-12-18T00:09:18;21.40;;;8.38;;
20144;SDS011;10233;50.814;6.590;2022-12-18T00:10:20;18.50;;;8.88;;
20144;SDS011;10233;50.814;6.590;2022-12-18T00:11:21;20.87;;;8.60;;
20144;SDS011;10233;50.814;6.590;2022-12-18T00:12:26;20.08;;;8.02;;
20144;SDS011;10233;50.814;6.590;2022-12-18T00:13:27;19.03;;;7.63;;
20144;SDS011;10233;50.814;6.590;2022-12-18T00:14:27;17.83;;;7.93;;
20144;SDS011;10233;50.814;6.590;2022-12-18T00:15:28;21.08;;;8.55;;
20144;SDS011;10233;50.814;6.590;2022-12-18T00:16:28;20.20;;;8.07;;
20144;SDS011;10233;50.814;6.590;2022-12-18T00:17:31;19.27;;;7.95;;
20144;SDS011;10233;50.814;6.590;2022-12-18T00:18:32;16.27;;;7.80;;
20144;SDS011;10233;50.814;6.590;2022-12-18T00:19:33;17.93;;;7.63;;
20144;SDS011;10233;50.814;6.590;2022-12-18T00:20:37;19.60;;;8.13;;
20144;SDS011;10233;50.814;6.590;2022-12-18T00:21:40;16.90;;;7.43;;
20144;SDS011;10233;50.814;6.590;2022-12-18T00:22:42;19.25;;;8.23;;
20144;SDS011;10233;50.814;6.590;2022-12-18T00:23:43;19.07;;;7.70;;
20144;SDS011;10233;50.814;6.590;2022-12-18T00:24:44;18.77;;;8.40;;
20144;SDS011;10233;50.814;6.590;2022-12-18T00:25:44;17.57;;;8.03;;
20144;SDS011;10233;50.814;6.590;2022-12-18T00:26:45;19.50;;;8.20;;
20144;SDS011;10233;50.814;6.590;2022-12-18T00:27:45;20.65;;;8.25;;
20144;SDS011;10233;50.814;6.590;2022-12-18T00:28:47;17.67;;;8.15;;
20144;SDS011;10233;50.814;6.590;2022-12-18T00:29:48;17.70;;;7.95;;
20144;SDS011;10233;50.814;6.590;2022-12-18T00:30:49;20.83;;;8.52;;
20144;SDS011;10233;50.814;6.590;2022-12-18T00:31:51;19.17;;;8.23;;
20144;SDS011;10233;50.814;6.590;2022-12-18T00:32:51;19.90;;;8.15;;
20144;SDS011;10233;50.814;6.590;2022-12-18T00:33:55;17.65;;;7.30;;
20144;SDS011;10233;50.814;6.590;2022-12-18T00:34:56;18.98;;;7.78;;
20144;SDS011;10233;50.814;6.590;2022-12-18T00:36:04;17.70;;;7.65;;
20144;SDS011;10233;50.814;6.590;2022-12-18T00:37:07;20.55;;;7.75;;
20144;SDS011;10233;50.814;6.590;2022-12-18T00:38:07;19.25;;;8.00;;
20144;SDS011;10233;50.814;6.590;2022-12-18T00:39:09;20.13;;;8.30;;
20144;SDS011;10233;50.814;6.590;2022-12-18T00:40:10;21.60;;;8.00;;
20144;SDS011;10233;50.814;6.590;2022-12-18T00:41:12;20.48;;;8.27;;
20144;SDS011;10233;50.814;6.590;2022-12-18T00:42:35;20.10;;;7.90;;
20144;SDS011;10233;50.814;6.590;2022-12-18T00:43:54;15.27;;;7.43;;
20144;SDS011;10233;50.814;6.590;2022-12-18T00:44:54;19.63;;;8.13;;
20144;SDS011;10233;50.814;6.590;2022-12-18T00:45:55;17.97;;;8.47;;
20144;SDS011;10233;50.814;6.590;2022-12-18T00:46:55;19.67;;;7.82;;
20144;SDS011;10233;50.814;6.590;2022-12-18T00:47:56;18.73;;;8.13;;
20144;SDS011;10233;50.814;6.590;2022-12-18T00:48:57;20.97;;;8.63;;
20144;SDS011;10233;50.814;6.590;2022-12-18T00:49:58;18.10;;;7.72;;
20144;SDS011;10233;50.814;6.590;2022-12-18T00:50:58;18.55;;;7.82;;
20144;SDS011;10233;50.814;6.590;2022-12-18T00:51:59;21.63;;;8.68;;
20144;SDS011;10233;50.814;6.590;2022-12-18T00:53:00;21.67;;;8.82;;
20144;SDS011;10233;50.814;6.590;2022-12-18T00:54:00;22.53;;;8.07;;
20144;SDS011;10233;50.814;6.590;2022-12-18T00:55:04;19.17;;;7.60;;
20144;SDS011;10233;50.814;6.590;2022-12-18T00:56:05;16.10;;;7.13;;
20144;SDS011;10233;50.814;6.590;2022-12-18T00:57:06;17.53;;;7.37;;
20144;SDS011;10233;50.814;6.590;2022-12-18T00:58:06;17.03;;;7.67;;
20144;SDS011;10233;50.814;6.590;2022-12-18T00:59:09;21.80;;;8.68;;
20144;SDS011;10233;50.814;6.590;2022-12-18T01:00:11;20.10;;;8.63;;
20144;SDS011;10233;50.814;6.590;2022-12-18T01:01:16;21.35;;;8.32;;
20144;SDS011;10233;50.814;6.590;2022-12-18T01:02:17;21.77;;;8.60;;
20144;SDS011;10233;50.814;6.590;2022-12-18T01:03:18;20.27;;;7.50;;
20144;SDS011;10233;50.814;6.590;2022-12-18T01:04:18;20.27;;;8.07;;
20144;SDS011;10233;50.814;6.590;2022-12-18T01:05:19;19.85;;;7.30;;
20144;SDS011;10233;50.814;6.590;2022-12-18T01:06:19;21.05;;;8.25;;
20144;SDS011;10233;50.814;6.590;2022-12-18T01:07:20;18.42;;;8.25;;
20144;SDS011;10233;50.814;6.590;2022-12-18T01:08:21;19.40;;;7.68;;
20144;SDS011;10233;50.814;6.590;2022-12-18T01:09:21;18.07;;;7.57;;
20144;SDS011;10233;50.814;6.590;2022-12-18T01:10:22;20.43;;;8.07;;
20144;SDS011;10233;50.814;6.590;2022-12-18T01:11:23;18.60;;;8.10;;
20144;SDS011;10233;50.814;6.590;2022-12-18T01:12:24;19.47;;;8.13;;
20144;SDS011;10233;50.814;6.590;2022-12-18T01:13:24;16.50;;;7.10;;
20144;SDS011;10233;50.814;6.590;2022-12-18T01:14:25;17.55;;;7.57;;
20144;SDS011;10233;50.814;6.590;2022-12-18T01:15:26;19.88;;;7.43;;
20144;SDS011;10233;50.814;6.590;2022-12-18T01:16:27;20.33;;;8.30;;
20144;SDS011;10233;50.814;6.590;2022-12-18T01:17:27;19.53;;;7.27;;
20144;SDS011;10233;50.814;6.590;2022-12-18T01:18:28;18.95;;;7.22;;
20144;SDS011;10233;50.814;6.590;2022-12-18T01:19:28;19.13;;;8.35;;
20144;SDS011;10233;50.814;6.590;2022-12-18T01:20:29;16.85;;;7.20;;
20144;SDS011;10233;50.814;6.590;2022-12-18T01:21:30;17.70;;;7.17;;
20144;SDS011;10233;50.814;6.590;2022-12-18T01:22:30;17.23;;;7.13;;
20144;SDS011;10233;50.814;6.590;2022-12-18T01:23:31;18.42;;;7.25;;
20144;SDS011;10233;50.814;6.590;2022-12-18T01:24:34;18.15;;;7.38;;
20144;SDS011;10233;50.814;6.590;2022-12-18T01:25:37;16.73;;;7.10;;
20144;SDS011;10233;50.814;6.590;2022-12-18T01:26:38;18.38;;;7.32;;
20144;SDS011;10233;50.814;6.590;2022-12-18T01:27:38;18.47;;;7.47;;
20144;SDS011;10233;50.814;6.590;2022-12-18T01:28:39;18.13;;;7.15;;
20144;SDS011;10233;50.814;6.590;2022-12-18T01:29:40;17.17;;;7.32;;
20144;SDS011;10233;50.814;6.590;2022-12-18T01:30:40;19.52;;;7.78;;
20144;SDS011;10233;50.814;6.590;2022-12-18T01:31:40;18.87;;;7.47;;
20144;SDS011;10233;50.814;6.590;2022-12-18T01:32:41;20.58;;;7.32;;
20144;SDS011;10233;50.814;6.590;2022-12-18T01:33:41;17.80;;;7.47;;
20144;SDS011;10233;50.814;6.590;2022-12-18T01:34:42;19.17;;;6.97;;
20144;SDS011;10233;50.814;6.590;2022-12-18T01:35:43;15.17;;;7.40;;
20144;SDS011;10233;50.814;6.590;2022-12-18T01:36:43;19.70;;;7.37;;
20144;SDS011;10233;50.814;6.590;2022-12-18T01:37:44;17.15;;;7.35;;
20144;SDS011;10233;50.814;6.590;2022-12-18T01:38:44;16.13;;;7.27;;
20144;SDS011;10233;50.814;6.590;2022-12-18T01:39:45;17.95;;;7.10;;
20144;SDS011;10233;50.814;6.590;2022-12-18T01:40:47;15.75;;;6.80;;
20144;SDS011;10233;50.814;6.590;2022-12-18T01:41:47;17.25;;;6.80;;
20144;SDS011;10233;50.814;6.590;2022-12-18T01:43:03;17.23;;;6.65;;
20144;SDS011;10233;50.814;6.590;2022-12-18T01:44:46;17.25;;;7.20;;
20144;SDS011;10233;50.814;6.590;2022-12-18T01:45:43;16.35;;;7.35;;
20144;SDS011;10233;50.814;6.590;2022-12-18T01:46:43;19.20;;;7.28;;
20144;SDS011;10233;50.814;6.590;2022-12-18T01:48:49;14.60;;;6.70;;
20144;SDS011;10233;50.814;6.590;2022-12-18T01:49:52;19.48;;;7.07;;
20144;SDS011;10233;50.814;6.590;2022-12-18T01:50:54;16.92;;;7.13;;
20144;SDS011;10233;50.814;6.590;2022-12-18T01:51:55;13.83;;;6.27;;
20144;SDS011;10233;50.814;6.590;2022-12-18T01:52:57;16.10;;;6.73;;
20144;SDS011;10233;50.814;6.590;2022-12-18T01:53:59;13.70;;;6.57;;
20144;SDS011;10233;50.814;6.590;2022-12-18T01:55:01;15.55;;;6.35;;
20144;SDS011;10233;50.814;6.590;2022-12-18T01:56:04;18.25;;;7.35;;
20144;SDS011;10233;50.814;6.590;2022-12-18T01:57:05;14.60;;;6.47;;
20144;SDS011;10233;50.814;6.590;2022-12-18T01:58:06;13.50;;;6.15;;
20144;SDS011;10233;50.814;6.590;2022-12-18T01:59:06;18.17;;;7.15;;
20144;SDS011;10233;50.814;6.590;2022-12-18T02:00:11;16.83;;;7.20;;
20144;SDS011;10233;50.814;6.590;2022-12-18T02:01:16;16.60;;;6.80;;
20144;SDS011;10233;50.814;6.590;2022-12-18T02:02:17;17.55;;;7.07;;
20144;SDS011;10233;50.814;6.590;2022-12-18T02:03:18;15.55;;;6.45;;
20144;SDS011;10233;50.814;6.590;2022-12-18T02:04:23;19.35;;;7.22;;
20144;SDS011;10233;50.814;6.590;2022-12-18T02:08:15;16.67;;;6.75;;
20144;SDS011;10233;50.814;6.590;2022-12-18T02:09:38;16.13;;;7.00;;
20144;SDS011;10233;50.814;6.590;2022-12-18T02:11:04;16.02;;;7.47;;
20144;SDS011;10233;50.814;6.590;2022-12-18T02:14:43;17.55;;;6.60;;
20144;SDS011;10233;50.814;6.590;2022-12-18T02:15:51;18.17;;;7.80;;
20144;SDS011;10233;50.814;6.590;2022-12-18T02:17:11;17.17;;;7.35;;
20144;SDS011;10233;50.814;6.590;2022-12-18T02:18:19;17.48;;;7.28;;
20144;SDS011;10233;50.814;6.590;2022-12-18T02:19:37;17.30;;;8.20;;
20144;SDS011;10233;50.814;6.590;2022-12-18T02:21:24;20.65;;;7.07;;
20144;SDS011;10233;50.814;6.590;2022-12-18T02:26:36;19.77;;;7.25;;
20144;SDS011;10233;50.814;6.590;2022-12-18T02:27:48;15.57;;;7.43;;
20144;SDS011;10233;50.814;6.590;2022-12-18T02:28:52;16.45;;;6.97;;
20144;SDS011;10233;50.814;6.590;2022-12-18T02:29:54;17.20;;;8.20;;
20144;SDS011;10233;50.814;6.590;2022-12-18T02:30:59;18.02;;;7.03;;
20144;SDS011;10233;50.814;6.590;2022-12-18T02:32:04;16.35;;;7.25;;
20144;SDS011;10233;50.814;6.590;2022-12-18T02:33:10;18.65;;;7.68;;
20144;SDS011;10233;50.814;6.590;2022-12-18T02:34:12;16.98;;;7.25;;
20144;SDS011;10233;50.814;6.590;2022-12-18T02:35:26;17.73;;;7.43;;
20144;SDS011;10233;50.814;6.590;2022-12-18T02:36:32;17.95;;;7.60;;
20144;SDS011;10233;50.814;6.590;2022-12-18T02:37:34;19.75;;;7.75;;
20144;SDS011;10233;50.814;6.590;2022-12-18T02:38:40;18.25;;;7.47;;
20144;SDS011;10233;50.814;6.590;2022-12-18T02:39:47;17.63;;;7.25;;
20144;SDS011;10233;50.814;6.590;2022-12-18T02:40:50;17.70;;;7.55;;
20144;SDS011;10233;50.814;6.590;2022-12-18T02:41:53;20.00;;;8.02;;
20144;SDS011;10233;50.814;6.590;2022-12-18T02:43:02;16.15;;;7.35;;
20144;SDS011;10233;50.814;6.590;2022-12-18T02:44:13;17.77;;;7.85;;
20144;SDS011;10233;50.814;6.590;2022-12-18T02:45:16;17.30;;;7.45;;
20144;SDS011;10233;50.814;6.590;2022-12-18T02:47:31;17.65;;;7.13;;
20144;SDS011;10233;50.814;6.590;2022-12-18T02:48:34;20.50;;;7.75;;
20144;SDS011;10233;50.814;6.590;2022-12-18T02:49:36;19.83;;;7.60;;
20144;SDS011;10233;50.814;6.590;2022-12-18T02:51:18;19.33;;;8.23;;
20144;SDS011;10233;50.814;6.590;2022-12-18T02:52:50;18.92;;;7.88;;
20144;SDS011;10233;50.814;6.590;2022-12-18T02:55:50;18.90;;;7.95;;
20144;SDS011;10233;50.814;6.590;2022-12-18T02:57:16;15.73;;;7.28;;
20144;SDS011;10233;50.814;6.590;2022-12-18T02:58:27;18.67;;;8.07;;
20144;SDS011;10233;50.814;6.590;2022-12-18T02:59:49;17.23;;;7.78;;
20144;SDS011;10233;50.814;6.590;2022-12-18T03:00:59;20.13;;;8.25;;
20144;SDS011;10233;50.814;6.590;2022-12-18T03:02:19;17.65;;;7.85;;
20144;SDS011;10233;50.814;6.590;2022-12-18T03:03:29;20.50;;;7.73;;
20144;SDS011;10233;50.814;6.590;2022-12-18T03:04:39;18.50;;;8.43;;
20144;SDS011;10233;50.814;6.590;2022-12-18T03:06:02;19.90;;;8.60;;
20144;SDS011;10233;50.814;6.590;2022-12-18T03:07:12;19.85;;;8.35;;
20144;SDS011;10233;50.814;6.590;2022-12-18T03:08:29;18.33;;;7.60;;
20144;SDS011;10233;50.814;6.590;2022-12-18T03:09:35;18.27;;;8.10;;
20144;SDS011;10233;50.814;6.590;2022-12-18T03:10:51;18.40;;;7.93;;
20144;SDS011;10233;50.814;6.590;2022-12-18T03:11:58;18.45;;;8.18;;
20144;SDS011;10233;50.814;6.590;2022-12-18T03:13:28;16.50;;;7.40;;
20144;SDS011;10233;50.814;6.590;2022-12-18T03:14:33;19.33;;;7.93;;
20144;SDS011;10233;50.814;6.590;2022-12-18T03:15:42;17.63;;;7.50;;
20144;SDS011;10233;50.814;6.590;2022-12-18T03:16:48;20.02;;;8.38;;
20144;SDS011;10233;50.814;6.590;2022-12-18T03:17:55;19.27;;;7.78;;
20144;SDS011;10233;50.814;6.590;2022-12-18T03:19:03;18.05;;;8.05;;
20144;SDS011;10233;50.814;6.590;2022-12-18T03:20:10;19.30;;;8.27;;
20144;SDS011;10233;50.814;6.590;2022-12-18T03:21:14;21.70;;;8.45;;
20144;SDS011;10233;50.814;6.590;2022-12-18T03:22:19;20.73;;;8.13;;
20144;SDS011;10233;50.814;6.590;2022-12-18T03:23:25;21.75;;;7.97;;
20144;SDS011;10233;50.814;6.590;2022-12-18T03:24:32;19.85;;;8.75;;
20144;SDS011;10233;50.814;6.590;2022-12-18T03:25:38;19.63;;;8.15;;
20144;SDS011;10233;50.814;6.590;2022-12-18T03:26:43;18.90;;;8.18;;
20144;SDS011;10233;50.814;6.590;2022-12-18T03:27:49;21.58;;;8.10;;
20144;SDS011;10233;50.814;6.590;2022-12-18T03:29:16;19.00;;;8.73;;
20144;SDS011;10233;50.814;6.590;2022-12-18T03:30:20;21.17;;;8.65;;
20144;SDS011;10233;50.814;6.590;2022-12-18T03:31:21;20.90;;;8.35;;
20144;SDS011;10233;50.814;6.590;2022-12-18T03:32:25;20.13;;;7.93;;
20144;SDS011;10233;50.814;6.590;2022-12-18T03:33:37;20.65;;;8.88;;
20144;SDS011;10233;50.814;6.590;2022-12-18T03:34:48;22.05;;;8.85;;
20144;SDS011;10233;50.814;6.590;2022-12-18T03:35:54;20.55;;;8.05;;
20144;SDS011;10233;50.814;6.590;2022-12-18T03:36:56;18.33;;;8.13;;
20144;SDS011;10233;50.814;6.590;2022-12-18T03:37:57;23.90;;;8.52;;
20144;SDS011;10233;50.814;6.590;2022-12-18T03:38:59;21.48;;;8.82;;
20144;SDS011;10233;50.814;6.590;2022-12-18T03:40:01;18.65;;;7.88;;
20144;SDS011;10233;50.814;6.590;2022-12-18T03:41:09;19.70;;;7.75;;
20144;SDS011;10233;50.814;6.590;2022-12-18T03:42:59;19.27;;;8.23;;
20144;SDS011;10233;50.814;6.590;2022-12-18T03:45:22;19.55;;;8.27;;
20144;SDS011;10233;50.814;6.590;2022-12-18T03:48:54;21.25;;;8.40;;
20144;SDS011;10233;50.814;6.590;2022-12-18T03:51:38;19.77;;;8.77;;
20144;SDS011;10233;50.814;6.590;2022-12-18T03:53:00;18.77;;;8.35;;
20144;SDS011;10233;50.814;6.590;2022-12-18T03:54:24;19.17;;;7.75;;
20144;SDS011;10233;50.814;6.590;2022-12-18T03:55:34;20.95;;;8.23;;
20144;SDS011;10233;50.814;6.590;2022-12-18T03:56:40;20.92;;;8.02;;
20144;SDS011;10233;50.814;6.590;2022-12-18T03:57:45;19.45;;;8.52;;
20144;SDS011;10233;50.814;6.590;2022-12-18T03:58:48;21.67;;;8.77;;
20144;SDS011;10233;50.814;6.590;2022-12-18T03:59:57;22.23;;;9.00;;
20144;SDS011;10233;50.814;6.590;2022-12-18T04:01:14;22.75;;;8.95;;
20144;SDS011;10233;50.814;6.590;2022-12-18T04:02:18;20.40;;;8.30;;
20144;SDS011;10233;50.814;6.590;2022-12-18T04:03:20;19.15;;;8.32;;
20144;SDS011;10233;50.814;6.590;2022-12-18T04:04:23;21.92;;;8.32;;
20144;SDS011;10233;50.814;6.590;2022-12-18T04:05:26;23.25;;;8.65;;
20144;SDS011;10233;50.814;6.590;2022-12-18T04:06:29;21.63;;;8.63;;
20144;SDS011;10233;50.814;6.590;2022-12-18T04:07:31;20.98;;;8.88;;
20144;SDS011;10233;50.814;6.590;2022-12-18T04:08:32;19.75;;;8.38;;
20144;SDS011;10233;50.814;6.590;2022-12-18T04:09:39;21.98;;;8.40;;
20144;SDS011;10233;50.814;6.590;2022-12-18T04:10:41;22.13;;;8.60;;
20144;SDS011;10233;50.814;6.590;2022-12-18T04:11:42;20.70;;;8.60;;
20144;SDS011;10233;50.814;6.590;2022-12-18T04:12:45;21.15;;;8.00;;
20144;SDS011;10233;50.814;6.590;2022-12-18T04:13:47;20.70;;;8.88;;
20144;SDS011;10233;50.814;6.590;2022-12-18T04:14:57;20.25;;;8.27;;
20144;SDS011;10233;50.814;6.590;2022-12-18T04:15:57;21.75;;;8.50;;
20144;SDS011;10233;50.814;6.590;2022-12-18T04:16:58;17.70;;;7.78;;
20144;SDS011;10233;50.814;6.590;2022-12-18T04:18:04;19.55;;;8.48;;
20144;SDS011;10233;50.814;6.590;2022-12-18T04:19:11;21.23;;;7.82;;
20144;SDS011;10233;50.814;6.590;2022-12-18T04:20:15;21.17;;;8.38;;
20144;SDS011;10233;50.814;6.590;2022-12-18T04:21:17;20.25;;;8.93;;
20144;SDS011;10233;50.814;6.590;2022-12-18T04:22:20;21.40;;;8.50;;
20144;SDS011;10233;50.814;6.590;2022-12-18T04:23:26;20.75;;;8.40;;
20144;SDS011;10233;50.814;6.590;2022-12-18T04:24:30;20.55;;;8.50;;
20144;SDS011;10233;50.814;6.590;2022-12-18T04:25:49;20.17;;;8.88;;
20144;SDS011;10233;50.814;6.590;2022-12-18T04:27:00;18.90;;;8.30;;
20144;SDS011;10233;50.814;6.590;2022-12-18T04:28:06;19.67;;;9.30;;
20144;SDS011;10233;50.814;6.590;2022-12-18T04:29:07;19.92;;;7.45;;
20144;SDS011;10233;50.814;6.590;2022-12-18T04:30:08;21.08;;;8.85;;
20144;SDS011;10233;50.814;6.590;2022-12-18T04:31:09;19.77;;;8.10;;
20144;SDS011;10233;50.814;6.590;2022-12-18T04:32:11;19.88;;;8.07;;
20144;SDS011;10233;50.814;6.590;2022-12-18T04:33:13;21.27;;;8.32;;
20144;SDS011;10233;50.814;6.590;2022-12-18T04:34:16;18.55;;;8.38;;
20144;SDS011;10233;50.814;6.590;2022-12-18T04:35:22;21.92;;;8.85;;
20144;SDS011;10233;50.814;6.590;2022-12-18T04:36:23;22.65;;;8.75;;
20144;SDS011;10233;50.814;6.590;2022-12-18T04:37:23;24.60;;;11.33;;
20144;SDS011;10233;50.814;6.590;2022-12-18T04:38:24;19.83;;;8.80;;
20144;SDS011;10233;50.814;6.590;2022-12-18T04:39:33;23.10;;;11.10;;
20144;SDS011;10233;50.814;6.590;2022-12-18T04:40:39;28.70;;;13.85;;
20144;SDS011;10233;50.814;6.590;2022-12-18T04:41:46;21.80;;;10.50;;
20144;SDS011;10233;50.814;6.590;2022-12-18T04:42:47;21.55;;;9.30;;
20144;SDS011;10233;50.814;6.590;2022-12-18T04:43:48;20.48;;;9.07;;
20144;SDS011;10233;50.814;6.590;2022-12-18T04:44:48;18.13;;;8.60;;
20144;SDS011;10233;50.814;6.590;2022-12-18T04:45:48;23.50;;;9.03;;
20144;SDS011;10233;50.814;6.590;2022-12-18T04:46:49;24.02;;;9.15;;
20144;SDS011;10233;50.814;6.590;2022-12-18T04:47:49;20.83;;;9.27;;
20144;SDS011;10233;50.814;6.590;2022-12-18T04:48:50;22.50;;;8.70;;
20144;SDS011;10233;50.814;6.590;2022-12-18T04:49:50;23.00;;;9.30;;
20144;SDS011;10233;50.814;6.590;2022-12-18T04:50:51;18.60;;;8.43;;
20144;SDS011;10233;50.814;6.590;2022-12-18T04:51:51;23.15;;;8.95;;
20144;SDS011;10233;50.814;6.590;2022-12-18T04:52:53;24.17;;;9.98;;
20144;SDS011;10233;50.814;6.590;2022-12-18T04:53:54;20.60;;;8.43;;
20144;SDS011;10233;50.814;6.590;2022-12-18T04:54:55;23.07;;;8.90;;
20144;SDS011;10233;50.814;6.590;2022-12-18T04:56:16;17.67;;;7.95;;
20144;SDS011;10233;50.814;6.590;2022-12-18T04:57:16;23.83;;;8.88;;
20144;SDS011;10233;50.814;6.590;2022-12-18T04:58:18;18.52;;;8.82;;
20144;SDS011;10233;50.814;6.590;2022-12-18T04:59:18;22.65;;;9.13;;
20144;SDS011;10233;50.814;6.590;2022-12-18T05:00:19;19.00;;;8.57;;
20144;SDS011;10233;50.814;6.590;2022-12-18T05:01:20;18.38;;;8.15;;
20144;SDS011;10233;50.814;6.590;2022-12-18T05:02:21;18.95;;;8.80;;
20144;SDS011;10233;50.814;6.590;2022-12-18T05:03:21;18.37;;;7.60;;
20144;SDS011;10233;50.814;6.590;2022-12-18T05:04:22;21.57;;;8.50;;
20144;SDS011;10233;50.814;6.590;2022-12-18T05:05:22;19.75;;;8.60;;
20144;SDS011;10233;50.814;6.590;2022-12-18T05:06:23;17.98;;;7.75;;
20144;SDS011;10233;50.814;6.590;2022-12-18T05:07:24;21.45;;;8.35;;
20144;SDS011;10233;50.814;6.590;2022-12-18T05:08:24;16.30;;;7.57;;
20144;SDS011;10233;50.814;6.590;2022-12-18T05:09:25;19.07;;;8.43;;
20144;SDS011;10233;50.814;6.590;2022-12-18T05:10:25;18.47;;;8.77;;
20144;SDS011;10233;50.814;6.590;2022-12-18T05:11:26;19.17;;;7.80;;
20144;SDS011;10233;50.814;6.590;2022-12-18T05:12:26;21.60;;;9.10;;
20144;SDS011;10233;50.814;6.590;2022-12-18T05:13:27;22.00;;;8.45;;
20144;SDS011;10233;50.814;6.590;2022-12-18T05:14:28;21.55;;;7.88;;
20144;SDS011;10233;50.814;6.590;2022-12-18T05:15:29;20.42;;;8.43;;
20144;SDS011;10233;50.814;6.590;2022-12-18T05:16:30;21.25;;;8.10;;
20144;SDS011;10233;50.814;6.590;2022-12-18T05:17:31;18.83;;;8.20;;
20144;SDS011;10233;50.814;6.590;2022-12-18T05:18:32;23.58;;;8.45;;
20144;SDS011;10233;50.814;6.590;2022-12-18T05:19:32;20.88;;;8.52;;
20144;SDS011;10233;50.814;6.590;2022-12-18T05:20:32;19.63;;;8.57;;
20144;SDS011;10233;50.814;6.590;2022-12-18T05:21:33;21.48;;;8.75;;
20144;SDS011;10233;50.814;6.590;2022-12-18T05:22:33;21.27;;;8.37;;
20144;SDS011;10233;50.814;6.590;2022-12-18T05:23:34;23.90;;;9.47;;
20144;SDS011;10233;50.814;6.590;2022-12-18T05:24:35;21.65;;;8.45;;
20144;SDS011;10233;50.814;6.590;2022-12-18T05:25:35;20.92;;;8.73;;
20144;SDS011;10233;50.814;6.590;2022-12-18T05:26:35;20.73;;;7.90;;
20144;SDS011;10233;50.814;6.590;2022-12-18T05:27:36;19.87;;;8.47;;
20144;SDS011;10233;50.814;6.590;2022-12-18T05:28:36;20.42;;;8.48;;
20144;SDS011;10233;50.814;6.590;2022-12-18T05:29:37;21.10;;;8.20;;
20144;SDS011;10233;50.814;6.590;2022-12-18T05:30:37;19.40;;;8.40;;
20144;SDS011;10233;50.814;6.590;2022-12-18T05:31:38;23.00;;;8.70;;
20144;SDS011;10233;50.814;6.590;2022-12-18T05:32:39;21.55;;;8.52;;
20144;SDS011;10233;50.814;6.590;2022-12-18T05:33:40;17.90;;;8.52;;
20144;SDS011;10233;50.814;6.590;2022-12-18T05:34:40;19.48;;;8.55;;
20144;SDS011;10233;50.814;6.590;2022-12-18T05:35:41;21.17;;;10.40;;
20144;SDS011;10233;50.814;6.590;2022-12-18T05:36:41;22.13;;;8.83;;
20144;SDS011;10233;50.814;6.590;2022-12-18T05:37:42;21.80;;;8.43;;
20144;SDS011;10233;50.814;6.590;2022-12-18T05:38:42;18.87;;;7.83;;
20144;SDS011;10233;50.814;6.590;2022-12-18T05:39:43;20.57;;;8.33;;
20144;SDS011;10233;50.814;6.590;2022-12-18T05:40:44;19.90;;;8.57;;
20144;SDS011;10233;50.814;6.590;2022-12-18T05:41:44;20.93;;;8.03;;
20144;SDS011;10233;50.814;6.590;2022-12-18T05:42:45;21.05;;;8.73;;
20144;SDS011;10233;50.814;6.590;2022-12-18T05:43:45;20.67;;;9.80;;
20144;SDS011;10233;50.814;6.590;2022-12-18T05:44:45;24.67;;;10.60;;
20144;SDS011;10233;50.814;6.590;2022-12-18T05:45:46;20.15;;;8.77;;
20144;SDS011;10233;50.814;6.590;2022-12-18T05:46:46;21.23;;;9.93;;
20144;SDS011;10233;50.814;6.590;2022-12-18T05:47:47;20.80;;;8.00;;
20144;SDS011;10233;50.814;6.590;2022-12-18T05:48:47;20.53;;;9.07;;
20144;SDS011;10233;50.814;6.590;2022-12-18T05:49:50;27.83;;;10.57;;
20144;SDS011;10233;50.814;6.590;2022-12-18T05:50:50;22.03;;;9.57;;
20144;SDS011;10233;50.814;6.590;2022-12-18T05:51:51;21.70;;;10.52;;
20144;SDS011;10233;50.814;6.590;2022-12-18T05:52:52;22.65;;;9.73;;
20144;SDS011;10233;50.814;6.590;2022-12-18T05:53:52;24.93;;;12.00;;
20144;SDS011;10233;50.814;6.590;2022-12-18T05:54:53;21.77;;;9.77;;
20144;SDS011;10233;50.814;6.590;2022-12-18T05:55:53;25.33;;;11.00;;
20144;SDS011;10233;50.814;6.590;2022-12-18T05:56:54;19.95;;;9.18;;
20144;SDS011;10233;50.814;6.590;2022-12-18T05:57:54;23.83;;;9.27;;
20144;SDS011;10233;50.814;6.590;2022-12-18T05:58:54;19.25;;;8.10;;
20144;SDS011;10233;50.814;6.590;2022-12-18T05:59:55;21.03;;;9.03;;
20144;SDS011;10233;50.814;6.590;2022-12-18T06:00:55;20.53;;;8.07;;
20144;SDS011;10233;50.814;6.590;2022-12-18T06:01:57;19.92;;;8.40;;
20144;SDS011;10233;50.814;6.590;2022-12-18T06:02:58;18.27;;;8.10;;
20144;SDS011;10233;50.814;6.590;2022-12-18T06:03:59;22.92;;;7.75;;
20144;SDS011;10233;50.814;6.590;2022-12-18T06:04:59;20.40;;;8.18;;
20144;SDS011;10233;50.814;6.590;2022-12-18T06:06:00;20.27;;;7.97;;
20144;SDS011;10233;50.814;6.590;2022-12-18T06:07:00;19.73;;;7.53;;
20144;SDS011;10233;50.814;6.590;2022-12-18T06:08:00;19.67;;;7.78;;
20144;SDS011;10233;50.814;6.590;2022-12-18T06:09:01;16.57;;;7.23;;
20144;SDS011;10233;50.814;6.590;2022-12-18T06:10:04;21.30;;;8.10;;
20144;SDS011;10233;50.814;6.590;2022-12-18T06:11:05;18.02;;;7.50;;
20144;SDS011;10233;50.814;6.590;2022-12-18T06:12:06;20.50;;;7.82;;
20144;SDS011;10233;50.814;6.590;2022-12-18T06:13:07;19.30;;;8.43;;
20144;SDS011;10233;50.814;6.590;2022-12-18T06:14:08;18.38;;;8.20;;
20144;SDS011;10233;50.814;6.590;2022-12-18T06:15:09;19.20;;;8.40;;
20144;SDS011;10233;50.814;6.590;2022-12-18T06:16:10;14.25;;;6.82;;
20144;SDS011;10233;50.814;6.590;2022-12-18T06:17:10;20.67;;;7.83;;
20144;SDS011;10233;50.814;6.590;2022-12-18T06:18:11;18.30;;;7.50;;
20144;SDS011;10233;50.814;6.590;2022-12-18T06:19:13;18.15;;;8.52;;
20144;SDS011;10233;50.814;6.590;2022-12-18T06:20:15;20.23;;;8.25;;
20144;SDS011;10233;50.814;6.590;2022-12-18T06:21:16;19.70;;;8.00;;
20144;SDS011;10233;50.814;6.590;2022-12-18T06:22:16;17.27;;;7.90;;
20144;SDS011;10233;50.814;6.590;2022-12-18T06:23:16;21.38;;;8.38;;
20144;SDS011;10233;50.814;6.590;2022-12-18T06:24:17;20.03;;;7.70;;
20144;SDS011;10233;50.814;6.590;2022-12-18T06:25:17;20.97;;;8.03;;
20144;SDS011;10233;50.814;6.590;2022-12-18T06:26:18;20.02;;;7.97;;
20144;SDS011;10233;50.814;6.590;2022-12-18T06:27:19;19.08;;;8.50;;
20144;SDS011;10233;50.814;6.590;2022-12-18T06:28:19;19.70;;;8.00;;
20144;SDS011;10233;50.814;6.590;2022-12-18T06:29:20;24.17;;;8.63;;
20144;SDS011;10233;50.814;6.590;2022-12-18T06:30:20;20.97;;;8.90;;
20144;SDS011;10233;50.814;6.590;2022-12-18T06:31:21;19.08;;;7.55;;
20144;SDS011;10233;50.814;6.590;2022-12-18T06:32:21;19.20;;;7.72;;
20144;SDS011;10233;50.814;6.590;2022-12-18T06:33:22;20.97;;;8.50;;
20144;SDS011;10233;50.814;6.590;2022-12-18T06:34:26;18.40;;;7.90;;
20144;SDS011;10233;50.814;6.590;2022-12-18T06:35:27;18.35;;;8.05;;
20144;SDS011;10233;50.814;6.590;2022-12-18T06:36:28;20.50;;;8.65;;
20144;SDS011;10233;50.814;6.590;2022-12-18T06:37:30;20.23;;;8.23;;
20144;SDS011;10233;50.814;6.590;2022-12-18T06:38:32;19.42;;;8.43;;